Time;durP1;ratioP1;P1;durP2;ratioP2;P2;SDS_P1;SDS_P2;PMS_P1;PMS_P2;Temp;Humidity;BMP_temperature;BMP_pressure;BME280_temperature;BME280_humidity;BME280_pressure;Samples;Min_cycle;Max_cycle;Signal;HPM_P1;HPM_P2
2022/09/06 00:01:58;;;;;;;6.50;4.00;;;;;;;;;;5065543;28;20193;-79
2022/09/06 00:04:24;;;;;;;3.70;3.40;;;;;;;;;;5065100;28;20213;-79
2022/09/06 00:06:50;;;;;;;4.23;3.83;;;;;;;;;;5055274;28;20568;-79
2022/09/06 00:09:17;;;;;;;4.00;3.70;;;;;;;;;;5036960;28;20191;-79
2022/09/06 00:11:43;;;;;;;5.07;3.80;;;;;;;;;;5062081;28;20198;-79
2022/09/06 00:14:09;;;;;;;5.10;3.67;;;;;;;;;;5064140;28;20204;-80
2022/09/06 00:16:35;;;;;;;3.83;3.43;;;;;;;;;;5050502;28;20204;-79
2022/09/06 00:19:02;;;;;;;4.30;3.80;;;;;;;;;;5044346;28;20242;-79
2022/09/06 00:21:29;;;;;;;5.30;3.73;;;;;;;;;;5067985;28;20196;-79
2022/09/06 00:23:56;;;;;;;5.37;3.60;;;;;;;;;;5052302;28;20201;-80
2022/09/06 00:26:23;;;;;;;4.67;3.20;;;;;;;;;;5078833;28;20181;-79
2022/09/06 00:28:49;;;;;;;3.63;3.10;;;;;;;;;;5044153;28;20613;-79
2022/09/06 00:31:20;;;;;;;3.40;2.77;;;;;;;;;;5040762;28;20209;-79
2022/09/06 00:33:46;;;;;;;3.27;2.93;;;;;;;;;;5064240;28;20185;-79
2022/09/06 00:36:12;;;;;;;3.50;3.20;;;;;;;;;;5074589;28;20196;-79
2022/09/06 00:38:39;;;;;;;3.40;3.00;;;;;;;;;;5056287;28;20184;-80
2022/09/06 00:41:06;;;;;;;4.67;3.30;;;;;;;;;;5060276;28;20775;-79
2022/09/06 00:43:33;;;;;;;4.03;3.30;;;;;;;;;;5049003;28;20185;-79
2022/09/06 00:45:59;;;;;;;2.83;2.60;;;;;;;;;;5042286;28;20261;-79
2022/09/06 00:48:25;;;;;;;4.63;3.10;;;;;;;;;;5071879;28;20185;-79
2022/09/06 00:50:55;;;;;;;4.50;3.13;;;;;;;;;;5049554;28;20205;-79
2022/09/06 00:53:21;;;;;;;3.33;3.03;;;;;;;;;;5049864;28;20174;-79
2022/09/06 00:55:47;;;;;;;5.93;3.17;;;;;;;;;;5053603;28;20227;-79
2022/09/06 00:58:14;;;;;;;4.03;3.17;;;;;;;;;;5059168;28;20180;-79
2022/09/06 01:00:40;;;;;;;4.83;3.00;;;;;;;;;;5065009;28;20181;-79
2022/09/06 01:03:06;;;;;;;3.97;2.70;;;;;;;;;;5070468;28;20260;-79
2022/09/06 01:05:38;;;;;;;3.67;2.93;;;;;;;;;;5068884;28;20206;-79
2022/09/06 01:08:27;;;;;;;2.97;2.77;;;;;;;;;;5056878;28;20200;-79
2022/09/06 01:11:14;;;;;;;5.13;2.80;;;;;;;;;;5068943;28;20209;-79
2022/09/06 01:13:59;;;;;;;6.93;3.07;;;;;;;;;;5048701;28;20261;-79
2022/09/06 01:16:29;;;;;;;4.10;3.20;;;;;;;;;;5055806;28;20220;-79
2022/09/06 01:19:18;;;;;;;6.03;2.73;;;;;;;;;;5049537;28;20200;-79
2022/09/06 01:21:53;;;;;;;3.90;2.73;;;;;;;;;;5063757;28;20267;-79
2022/09/06 01:24:31;;;;;;;3.43;3.00;;;;;;;;;;5066234;28;20203;-79
2022/09/06 01:27:12;;;;;;;5.07;2.83;;;;;;;;;;5045618;28;20188;-79
2022/09/06 01:29:47;;;;;;;3.63;2.63;;;;;;;;;;5062660;28;20185;-79
2022/09/06 01:32:29;;;;;;;5.07;2.80;;;;;;;;;;5061630;28;20181;-79
2022/09/06 01:35:16;;;;;;;3.00;2.70;;;;;;;;;;5049645;28;20213;-79
2022/09/06 01:37:42;;;;;;;4.27;2.90;;;;;;;;;;5054180;28;20333;-79
2022/09/06 01:40:09;;;;;;;7.13;3.50;;;;;;;;;;5068296;28;20197;-79
2022/09/06 01:42:36;;;;;;;4.60;4.10;;;;;;;;;;5067857;28;20256;-79
2022/09/06 01:45:05;;;;;;;3.80;2.90;;;;;;;;;;5062794;28;20318;-78
2022/09/06 01:47:43;;;;;;;4.97;3.00;;;;;;;;;;5067689;28;20649;-78
2022/09/06 01:50:12;;;;;;;4.50;2.87;;;;;;;;;;5055140;28;20236;-78
2022/09/06 01:53:01;;;;;;;3.53;3.00;;;;;;;;;;5059031;28;20205;-78
2022/09/06 01:55:33;;;;;;;3.40;3.10;;;;;;;;;;5037018;28;20760;-78
2022/09/06 01:58:08;;;;;;;3.30;3.00;;;;;;;;;;5064973;28;20207;-78
2022/09/06 02:00:38;;;;;;;4.27;3.00;;;;;;;;;;5058011;28;20235;-78
2022/09/06 02:03:13;;;;;;;5.17;2.80;;;;;;;;;;5058861;28;20665;-78
2022/09/06 02:05:45;;;;;;;4.30;2.80;;;;;;;;;;5060160;28;20235;-78
2022/09/06 02:08:18;;;;;;;2.97;2.50;;;;;;;;;;5043834;28;20693;-78
2022/09/06 02:11:01;;;;;;;2.70;2.50;;;;;;;;;;5067012;28;20201;-78
2022/09/06 02:13:31;;;;;;;3.47;2.83;;;;;;;;;;5042715;28;20290;-78
2022/09/06 02:16:00;;;;;;;3.40;2.83;;;;;;;;;;5067346;28;20189;-78
2022/09/06 02:18:46;;;;;;;3.97;3.03;;;;;;;;;;5066122;28;20258;-78
2022/09/06 02:21:14;;;;;;;4.20;3.07;;;;;;;;;;5063208;28;20184;-78
2022/09/06 02:23:41;;;;;;;4.07;2.83;;;;;;;;;;5064109;28;20180;-78
2022/09/06 02:26:12;;;;;;;7.10;3.10;;;;;;;;;;5067453;28;20234;-78
2022/09/06 02:28:38;;;;;;;3.03;2.73;;;;;;;;;;5066169;28;20176;-78
2022/09/06 02:31:09;;;;;;;3.13;2.83;;;;;;;;;;5064591;28;20196;-78
2022/09/06 02:33:36;;;;;;;3.20;2.90;;;;;;;;;;5067695;28;20178;-78
2022/09/06 02:36:06;;;;;;;3.17;2.80;;;;;;;;;;5056503;28;20629;-79
2022/09/06 02:38:34;;;;;;;4.83;2.80;;;;;;;;;;5056905;28;20581;-78
2022/09/06 02:41:00;;;;;;;4.10;3.00;;;;;;;;;;5070533;28;20185;-79
2022/09/06 02:43:26;;;;;;;5.43;2.90;;;;;;;;;;5070884;28;20285;-78
2022/09/06 02:45:52;;;;;;;3.03;2.73;;;;;;;;;;5062319;28;20197;-79
2022/09/06 02:48:18;;;;;;;4.33;3.27;;;;;;;;;;5048592;28;20189;-78
2022/09/06 02:50:45;;;;;;;5.93;3.17;;;;;;;;;;5060990;28;20201;-78
2022/09/06 02:53:12;;;;;;;4.23;3.20;;;;;;;;;;5054835;28;20196;-78
2022/09/06 02:55:39;;;;;;;5.73;3.10;;;;;;;;;;5038366;28;20722;-78
2022/09/06 02:58:05;;;;;;;3.83;3.17;;;;;;;;;;5059384;28;20242;-78
2022/09/06 03:00:32;;;;;;;5.17;3.33;;;;;;;;;;5061866;28;20171;-78
2022/09/06 03:02:58;;;;;;;3.60;3.17;;;;;;;;;;5070939;28;20774;-78
2022/09/06 03:05:26;;;;;;;7.27;3.37;;;;;;;;;;5053569;28;20628;-79
2022/09/06 03:07:53;;;;;;;4.07;3.53;;;;;;;;;;5035341;28;20188;-78
2022/09/06 03:10:19;;;;;;;3.60;3.30;;;;;;;;;;5041356;28;20202;-78
2022/09/06 03:12:46;;;;;;;3.63;3.30;;;;;;;;;;5063475;28;20668;-78
2022/09/06 03:15:13;;;;;;;3.60;3.20;;;;;;;;;;5067160;28;20219;-78
2022/09/06 03:17:39;;;;;;;3.40;3.10;;;;;;;;;;5068667;28;20274;-78
2022/09/06 03:20:06;;;;;;;5.17;3.20;;;;;;;;;;5048881;28;20182;-78
2022/09/06 03:22:32;;;;;;;3.20;2.90;;;;;;;;;;5063147;28;20207;-78
2022/09/06 03:24:58;;;;;;;5.37;3.40;;;;;;;;;;5068868;28;20821;-78
2022/09/06 03:27:24;;;;;;;4.60;3.30;;;;;;;;;;5048823;28;20185;-78
2022/09/06 03:29:50;;;;;;;3.73;3.20;;;;;;;;;;5066244;28;20174;-78
2022/09/06 03:32:17;;;;;;;5.27;3.50;;;;;;;;;;5071773;28;20712;-78
2022/09/06 03:34:43;;;;;;;4.03;3.20;;;;;;;;;;5067477;28;20556;-78
2022/09/06 03:37:09;;;;;;;3.23;2.93;;;;;;;;;;5065179;28;20256;-78
2022/09/06 03:39:35;;;;;;;4.20;2.60;;;;;;;;;;5034994;28;20254;-78
2022/09/06 03:42:01;;;;;;;2.40;2.20;;;;;;;;;;5070156;28;20797;-79
2022/09/06 03:44:28;;;;;;;3.50;2.33;;;;;;;;;;5051280;28;20201;-80
2022/09/06 03:46:54;;;;;;;3.23;2.37;;;;;;;;;;5062763;28;20181;-80
2022/09/06 03:49:31;;;;;;;2.30;2.10;;;;;;;;;;5065205;28;20212;-81
2022/09/06 03:52:17;;;;;;;2.63;2.30;;;;;;;;;;5077470;28;20285;-80
2022/09/06 03:54:44;;;;;;;2.63;2.43;;;;;;;;;;5049824;28;20204;-80
2022/09/06 03:57:11;;;;;;;2.70;2.50;;;;;;;;;;5037595;28;20178;-81
2022/09/06 03:59:37;;;;;;;3.83;2.40;;;;;;;;;;5047794;28;20187;-82
2022/09/06 04:02:03;;;;;;;2.33;2.13;;;;;;;;;;5045730;28;20187;-82
2022/09/06 04:04:29;;;;;;;3.87;2.43;;;;;;;;;;5053036;28;20636;-81
2022/09/06 04:06:55;;;;;;;2.43;2.23;;;;;;;;;;5070496;28;20743;-82
2022/09/06 04:09:22;;;;;;;2.50;2.30;;;;;;;;;;5036840;28;20441;-82
2022/09/06 04:11:48;;;;;;;4.43;2.60;;;;;;;;;;5068979;28;20292;-82
2022/09/06 04:14:14;;;;;;;3.93;2.50;;;;;;;;;;5057409;28;20221;-82
2022/09/06 04:16:40;;;;;;;3.50;2.50;;;;;;;;;;5051481;28;20234;-82
2022/09/06 04:19:06;;;;;;;3.03;2.60;;;;;;;;;;5044779;28;20186;-82
2022/09/06 04:21:33;;;;;;;4.43;2.70;;;;;;;;;;5063891;28;20252;-82
2022/09/06 04:23:59;;;;;;;6.30;2.67;;;;;;;;;;5052488;28;20244;-82
2022/09/06 04:26:25;;;;;;;2.63;2.43;;;;;;;;;;5050879;28;20228;-82
2022/09/06 04:28:51;;;;;;;3.83;2.63;;;;;;;;;;5060306;28;20173;-82
2022/09/06 04:31:17;;;;;;;3.60;2.37;;;;;;;;;;5048062;28;20300;-82
2022/09/06 04:33:43;;;;;;;2.67;2.30;;;;;;;;;;5034629;28;20234;-82
2022/09/06 04:36:10;;;;;;;2.50;2.30;;;;;;;;;;5063503;28;20185;-82
2022/09/06 04:38:38;;;;;;;3.13;2.47;;;;;;;;;;5070670;28;20174;-82
2022/09/06 04:41:05;;;;;;;3.00;2.70;;;;;;;;;;5019216;28;20254;-82
2022/09/06 04:43:31;;;;;;;3.93;2.70;;;;;;;;;;5037030;28;20192;-82
2022/09/06 04:46:17;;;;;;;4.13;2.77;;;;;;;;;;5035913;28;20708;-82
2022/09/06 04:48:43;;;;;;;7.43;2.80;;;;;;;;;;5070760;28;20179;-82
2022/09/06 04:51:09;;;;;;;5.63;3.10;;;;;;;;;;5066096;28;20209;-81
2022/09/06 04:53:35;;;;;;;3.43;2.57;;;;;;;;;;5058754;28;20205;-81
2022/09/06 04:56:02;;;;;;;5.27;3.00;;;;;;;;;;5055100;28;20170;-81
2022/09/06 04:58:28;;;;;;;3.60;2.90;;;;;;;;;;5057836;28;20449;-81
2022/09/06 05:00:54;;;;;;;4.10;2.93;;;;;;;;;;5052665;28;20190;-82
2022/09/06 05:03:20;;;;;;;3.00;2.70;;;;;;;;;;5063921;28;20208;-81
2022/09/06 05:05:47;;;;;;;3.40;3.10;;;;;;;;;;5068205;28;20198;-82
2022/09/06 05:08:13;;;;;;;4.13;2.93;;;;;;;;;;5072791;28;20189;-82
2022/09/06 05:10:39;;;;;;;3.93;2.70;;;;;;;;;;5073556;28;20209;-82
2022/09/06 05:13:05;;;;;;;3.97;2.80;;;;;;;;;;5069420;28;20166;-81
2022/09/06 05:15:32;;;;;;;4.83;3.20;;;;;;;;;;5046616;28;20197;-81
2022/09/06 05:18:02;;;;;;;4.10;3.10;;;;;;;;;;5074144;28;20180;-81
2022/09/06 05:20:29;;;;;;;3.70;3.13;;;;;;;;;;5066760;28;20189;-80
2022/09/06 05:22:55;;;;;;;3.30;3.00;;;;;;;;;;5023930;28;20197;-81
2022/09/06 05:25:23;;;;;;;3.10;2.80;;;;;;;;;;5040479;28;20294;-80
2022/09/06 05:27:50;;;;;;;3.07;2.87;;;;;;;;;;5061895;28;20189;-80
2022/09/06 05:30:17;;;;;;;5.00;3.20;;;;;;;;;;5028708;28;20228;-81
2022/09/06 05:32:44;;;;;;;4.40;2.83;;;;;;;;;;5054027;28;20181;-81
2022/09/06 05:35:10;;;;;;;3.53;3.03;;;;;;;;;;5046723;28;20200;-80
2022/09/06 05:37:37;;;;;;;3.80;3.00;;;;;;;;;;5045232;28;20185;-79
2022/09/06 05:40:03;;;;;;;3.83;2.60;;;;;;;;;;5065651;28;20230;-79
2022/09/06 05:42:29;;;;;;;4.47;2.93;;;;;;;;;;5046733;28;20185;-79
2022/09/06 05:44:56;;;;;;;4.23;3.37;;;;;;;;;;5048818;28;20216;-79
2022/09/06 05:47:22;;;;;;;6.53;2.90;;;;;;;;;;5063749;28;20237;-79
2022/09/06 05:49:48;;;;;;;4.07;3.30;;;;;;;;;;5065755;28;20179;-79
2022/09/06 05:52:16;;;;;;;5.40;3.00;;;;;;;;;;5044925;28;20783;-79
2022/09/06 05:54:42;;;;;;;5.67;3.47;;;;;;;;;;5078492;28;20200;-79
2022/09/06 05:57:08;;;;;;;4.30;3.83;;;;;;;;;;5046996;28;20181;-80
2022/09/06 05:59:34;;;;;;;5.33;3.90;;;;;;;;;;5054909;28;20273;-79
2022/09/06 06:02:00;;;;;;;6.57;3.70;;;;;;;;;;5047807;28;20208;-77
2022/09/06 06:04:26;;;;;;;5.63;4.50;;;;;;;;;;5065339;28;20216;-77
2022/09/06 06:06:53;;;;;;;7.60;4.37;;;;;;;;;;5031815;28;20239;-78
2022/09/06 06:09:19;;;;;;;5.53;4.63;;;;;;;;;;5072893;28;20181;-77
2022/09/06 06:11:45;;;;;;;5.80;4.13;;;;;;;;;;5071922;28;20292;-78
2022/09/06 06:14:11;;;;;;;7.57;5.13;;;;;;;;;;5064995;28;20256;-79
2022/09/06 06:16:37;;;;;;;7.00;4.53;;;;;;;;;;5046785;28;20190;-79
2022/09/06 06:19:04;;;;;;;5.37;4.73;;;;;;;;;;5047610;28;20169;-80
2022/09/06 06:21:31;;;;;;;5.90;4.67;;;;;;;;;;5085622;28;20181;-80
2022/09/06 06:24:00;;;;;;;8.67;4.50;;;;;;;;;;5086048;28;20196;-79
2022/09/06 06:26:28;;;;;;;5.00;4.50;;;;;;;;;;5062970;28;20192;-79
2022/09/06 06:28:56;;;;;;;5.40;4.80;;;;;;;;;;5053564;28;20201;-79
2022/09/06 06:31:22;;;;;;;5.63;4.30;;;;;;;;;;5049378;28;20243;-79
2022/09/06 06:33:49;;;;;;;6.23;4.90;;;;;;;;;;5056045;28;20178;-79
2022/09/06 06:36:15;;;;;;;5.33;4.70;;;;;;;;;;5073454;28;20181;-79
2022/09/06 06:38:42;;;;;;;6.40;5.07;;;;;;;;;;5091453;28;20458;-79
2022/09/06 06:41:09;;;;;;;6.80;4.60;;;;;;;;;;5088714;28;20210;-79
2022/09/06 06:43:36;;;;;;;7.67;4.90;;;;;;;;;;5071791;28;20181;-79
2022/09/06 06:46:13;;;;;;;7.83;4.77;;;;;;;;;;5071941;28;20202;-79
2022/09/06 06:48:40;;;;;;;5.90;4.80;;;;;;;;;;5081608;28;20716;-79
2022/09/06 06:51:07;;;;;;;5.50;5.00;;;;;;;;;;5067146;28;20296;-79
2022/09/06 06:53:34;;;;;;;6.30;4.87;;;;;;;;;;5084776;28;20173;-79
2022/09/06 06:56:00;;;;;;;5.70;5.13;;;;;;;;;;5094141;28;20219;-79
2022/09/06 06:58:27;;;;;;;4.87;4.37;;;;;;;;;;5060418;28;20188;-79
2022/09/06 07:00:53;;;;;;;6.87;4.90;;;;;;;;;;5055276;28;20208;-82
2022/09/06 07:03:19;;;;;;;6.83;4.30;;;;;;;;;;5072607;28;20209;-79
2022/09/06 07:05:46;;;;;;;5.60;5.03;;;;;;;;;;5095066;28;20208;-79
2022/09/06 07:08:12;;;;;;;5.73;4.50;;;;;;;;;;5088683;28;20193;-79
2022/09/06 07:10:38;;;;;;;5.07;4.53;;;;;;;;;;5100707;28;20212;-79
2022/09/06 07:13:04;;;;;;;5.43;4.90;;;;;;;;;;5084745;28;20185;-79
2022/09/06 07:15:31;;;;;;;6.97;5.40;;;;;;;;;;5095610;28;20219;-79
2022/09/06 07:17:57;;;;;;;5.40;4.63;;;;;;;;;;5087280;28;20177;-79
2022/09/06 07:20:27;;;;;;;6.90;5.63;;;;;;;;;;5089137;28;20185;-79
2022/09/06 07:23:00;;;;;;;5.77;5.17;;;;;;;;;;5079991;28;20189;-79
2022/09/06 07:25:28;;;;;;;6.13;5.53;;;;;;;;;;5094937;28;20247;-79
2022/09/06 07:27:57;;;;;;;7.33;5.27;;;;;;;;;;5088851;28;20227;-79
2022/09/06 07:30:23;;;;;;;6.87;4.63;;;;;;;;;;5089010;28;20234;-79
2022/09/06 07:32:49;;;;;;;5.53;4.10;;;;;;;;;;5098996;28;20260;-79
2022/09/06 07:35:16;;;;;;;5.93;5.10;;;;;;;;;;5069944;28;20209;-79
2022/09/06 07:37:42;;;;;;;4.70;4.20;;;;;;;;;;5091331;28;20180;-79
2022/09/06 07:40:08;;;;;;;8.33;5.10;;;;;;;;;;5089513;28;20177;-79
2022/09/06 07:42:35;;;;;;;6.83;4.90;;;;;;;;;;5089821;28;20266;-79
2022/09/06 07:45:01;;;;;;;5.97;4.70;;;;;;;;;;5089608;28;20204;-79
2022/09/06 07:47:27;;;;;;;6.40;4.83;;;;;;;;;;5081368;28;20186;-79
2022/09/06 07:49:53;;;;;;;7.23;4.50;;;;;;;;;;5086200;28;20177;-79
2022/09/06 07:52:19;;;;;;;7.63;5.30;;;;;;;;;;5073017;28;20201;-79
2022/09/06 07:54:45;;;;;;;7.43;5.13;;;;;;;;;;5083527;28;20284;-79
2022/09/06 07:57:12;;;;;;;5.60;5.00;;;;;;;;;;5087988;28;20185;-79
2022/09/06 07:59:38;;;;;;;6.13;4.63;;;;;;;;;;5096336;28;20342;-79
2022/09/06 08:02:04;;;;;;;6.60;5.07;;;;;;;;;;5098650;28;20181;-79
2022/09/06 08:04:30;;;;;;;6.40;4.53;;;;;;;;;;5094630;28;20528;-79
2022/09/06 08:06:56;;;;;;;5.53;4.43;;;;;;;;;;5105664;28;20216;-79
2022/09/06 08:09:23;;;;;;;6.27;4.77;;;;;;;;;;5077382;28;20190;-79
2022/09/06 08:11:51;;;;;;;8.00;5.47;;;;;;;;;;5101760;28;20268;-79
2022/09/06 08:14:17;;;;;;;5.53;4.50;;;;;;;;;;5081143;28;20190;-79
2022/09/06 08:16:43;;;;;;;6.60;4.70;;;;;;;;;;5108619;28;20208;-79
2022/09/06 08:19:11;;;;;;;7.30;5.47;;;;;;;;;;5083298;28;20184;-79
2022/09/06 08:21:37;;;;;;;6.20;4.57;;;;;;;;;;5102206;28;20248;-79
2022/09/06 08:24:05;;;;;;;9.30;4.53;;;;;;;;;;5072875;28;20253;-79
2022/09/06 08:26:32;;;;;;;8.67;5.10;;;;;;;;;;5079616;28;20267;-79
2022/09/06 08:29:00;;;;;;;8.10;5.47;;;;;;;;;;5084487;28;20276;-79
2022/09/06 08:31:30;;;;;;;7.23;6.00;;;;;;;;;;5077623;28;20221;-79
2022/09/06 08:33:56;;;;;;;7.47;5.87;;;;;;;;;;5070375;28;20189;-79
2022/09/06 08:36:26;;;;;;;8.13;6.00;;;;;;;;;;5087480;28;20169;-79
2022/09/06 08:38:52;;;;;;;6.13;5.23;;;;;;;;;;5066496;28;20196;-79
2022/09/06 08:41:37;;;;;;;7.43;5.60;;;;;;;;;;5052903;28;20213;-79
2022/09/06 08:44:05;;;;;;;7.80;5.50;;;;;;;;;;5085794;28;20215;-79
2022/09/06 08:46:39;;;;;;;6.87;5.50;;;;;;;;;;5097566;28;20187;-79
2022/09/06 08:49:05;;;;;;;8.37;4.90;;;;;;;;;;5097079;28;20201;-79
2022/09/06 08:51:35;;;;;;;5.53;4.93;;;;;;;;;;5086282;28;20218;-79
2022/09/06 08:54:08;;;;;;;6.67;5.33;;;;;;;;;;5070386;28;20331;-79
2022/09/06 08:56:38;;;;;;;12.13;5.10;;;;;;;;;;5075862;28;20228;-79
2022/09/06 08:59:05;;;;;;;5.80;4.33;;;;;;;;;;5064115;28;20161;-79
2022/09/06 09:01:50;;;;;;;7.90;4.80;;;;;;;;;;5086133;28;20182;-79
2022/09/06 09:04:19;;;;;;;5.67;5.07;;;;;;;;;;5083363;28;20231;-79
2022/09/06 09:06:50;;;;;;;8.10;4.80;;;;;;;;;;5093604;28;20181;-79
2022/09/06 09:09:16;;;;;;;5.53;4.90;;;;;;;;;;5088620;28;20208;-79
2022/09/06 09:11:44;;;;;;;7.63;4.27;;;;;;;;;;5048333;28;20327;-79
2022/09/06 09:14:16;;;;;;;5.07;4.63;;;;;;;;;;5086587;28;20232;-79
2022/09/06 09:16:43;;;;;;;6.30;4.30;;;;;;;;;;5096819;28;20357;-79
2022/09/06 09:19:09;;;;;;;6.87;4.23;;;;;;;;;;5093113;28;20238;-79
2022/09/06 09:21:36;;;;;;;5.07;4.07;;;;;;;;;;5074534;28;20173;-79
2022/09/06 09:24:06;;;;;;;5.53;4.23;;;;;;;;;;5068030;28;20213;-79
2022/09/06 09:26:56;;;;;;;4.60;4.20;;;;;;;;;;5079722;28;20208;-79
2022/09/06 09:29:22;;;;;;;4.70;4.20;;;;;;;;;;5065445;28;20260;-79
2022/09/06 09:31:50;;;;;;;5.33;4.00;;;;;;;;;;5086727;28;20205;-79
2022/09/06 09:34:33;;;;;;;6.23;3.97;;;;;;;;;;5093689;28;20232;-79
2022/09/06 09:37:14;;;;;;;5.30;3.40;;;;;;;;;;5082210;28;20403;-79
2022/09/06 09:39:40;;;;;;;6.10;3.87;;;;;;;;;;5090025;28;20178;-79
2022/09/06 09:42:08;;;;;;;4.07;3.50;;;;;;;;;;5075702;28;20181;-79
2022/09/06 09:44:35;;;;;;;5.13;3.50;;;;;;;;;;5092864;28;20403;-79
2022/09/06 09:47:09;;;;;;;6.90;4.10;;;;;;;;;;5092283;28;20188;-79
2022/09/06 09:49:35;;;;;;;7.17;3.97;;;;;;;;;;5090337;28;20180;-79
2022/09/06 09:52:05;;;;;;;4.57;3.97;;;;;;;;;;5061797;28;20602;-79
2022/09/06 09:54:32;;;;;;;4.30;3.90;;;;;;;;;;5085379;28;20241;-79
2022/09/06 09:56:59;;;;;;;6.77;3.83;;;;;;;;;;5092226;28;20174;-79
2022/09/06 09:59:29;;;;;;;6.13;4.10;;;;;;;;;;5082559;28;20189;-79
2022/09/06 10:01:58;;;;;;;5.63;4.23;;;;;;;;;;5067863;28;20195;-79
2022/09/06 10:04:31;;;;;;;4.93;3.70;;;;;;;;;;5088111;28;20297;-79
2022/09/06 10:07:07;;;;;;;5.03;4.13;;;;;;;;;;5084831;28;20235;-79
2022/09/06 10:09:35;;;;;;;4.20;3.80;;;;;;;;;;5068021;28;20182;-79
2022/09/06 10:12:02;;;;;;;4.43;3.80;;;;;;;;;;5068268;28;20242;-79
2022/09/06 10:14:30;;;;;;;6.03;4.20;;;;;;;;;;5070187;28;20204;-79
2022/09/06 10:16:57;;;;;;;6.13;4.00;;;;;;;;;;5055287;28;20189;-79
2022/09/06 10:19:23;;;;;;;5.83;4.10;;;;;;;;;;5076746;28;20234;-79
2022/09/06 10:21:51;;;;;;;5.83;3.80;;;;;;;;;;5056566;28;20197;-79
2022/09/06 10:24:29;;;;;;;5.07;4.30;;;;;;;;;;5091798;28;20212;-79
2022/09/06 10:26:58;;;;;;;6.30;3.80;;;;;;;;;;5077156;28;20186;-79
2022/09/06 10:29:33;;;;;;;4.00;3.60;;;;;;;;;;5079261;28;20185;-79
2022/09/06 10:32:26;;;;;;;6.57;4.50;;;;;;;;;;5068298;28;20258;-79
2022/09/06 10:35:09;;;;;;;4.87;3.97;;;;;;;;;;5065909;28;20216;-79
2022/09/06 10:37:35;;;;;;;8.03;4.20;;;;;;;;;;5085857;28;20205;-79
2022/09/06 10:40:09;;;;;;;3.70;3.20;;;;;;;;;;5083499;28;20231;-79
2022/09/06 10:42:40;;;;;;;4.00;3.40;;;;;;;;;;5090897;28;20170;-80
2022/09/06 10:45:25;;;;;;;4.60;3.47;;;;;;;;;;5078222;28;20274;-79
2022/09/06 10:47:58;;;;;;;4.67;3.23;;;;;;;;;;5083980;28;20195;-79
2022/09/06 10:50:33;;;;;;;3.40;2.80;;;;;;;;;;5090619;28;20212;-79
2022/09/06 10:53:03;;;;;;;4.60;3.27;;;;;;;;;;5090987;28;20160;-79
2022/09/06 10:55:31;;;;;;;5.57;3.07;;;;;;;;;;5084706;28;20228;-79
2022/09/06 10:58:03;;;;;;;3.47;3.17;;;;;;;;;;5090979;28;20241;-80
2022/09/06 11:00:33;;;;;;;5.53;2.93;;;;;;;;;;5090015;28;20188;-79
2022/09/06 11:03:14;;;;;;;6.30;3.10;;;;;;;;;;5095553;28;20885;-80
2022/09/06 11:05:44;;;;;;;7.37;3.23;;;;;;;;;;5093301;28;20314;-79
2022/09/06 11:08:17;;;;;;;3.90;3.50;;;;;;;;;;5064231;28;20186;-80
2022/09/06 11:10:46;;;;;;;6.27;3.30;;;;;;;;;;5085605;28;20322;-79
2022/09/06 11:13:20;;;;;;;3.90;3.43;;;;;;;;;;5091852;28;20167;-79
2022/09/06 11:15:54;;;;;;;4.30;3.53;;;;;;;;;;5090421;28;20207;-80
2022/09/06 11:18:28;;;;;;;3.50;3.20;;;;;;;;;;5079478;28;20191;-79
2022/09/06 11:20:54;;;;;;;4.87;3.20;;;;;;;;;;5078366;28;20184;-80
2022/09/06 11:23:20;;;;;;;5.10;3.10;;;;;;;;;;5076718;28;20173;-79
2022/09/06 11:25:54;;;;;;;4.73;3.20;;;;;;;;;;5090953;28;20190;-79
2022/09/06 11:28:33;;;;;;;4.10;2.83;;;;;;;;;;5089437;28;20173;-78
2022/09/06 11:30:59;;;;;;;5.93;3.20;;;;;;;;;;5065001;28;20208;-78
2022/09/06 11:33:30;;;;;;;5.67;2.97;;;;;;;;;;5079536;28;20182;-79
2022/09/06 11:36:28;;;;;;;4.13;2.80;;;;;;;;;;5045399;28;20209;-80
2022/09/06 11:38:59;;;;;;;2.87;2.43;;;;;;;;;;5015864;28;20186;-80
2022/09/06 11:41:32;;;;;;;3.53;2.60;;;;;;;;;;5065624;28;20178;-80
2022/09/06 11:43:58;;;;;;;3.33;2.63;;;;;;;;;;5058248;28;20261;-81
2022/09/06 11:46:33;;;;;;;2.73;2.40;;;;;;;;;;5068750;28;20192;-81
2022/09/06 11:49:02;;;;;;;3.70;3.00;;;;;;;;;;5066730;28;20224;-80
2022/09/06 11:51:36;;;;;;;3.73;2.90;;;;;;;;;;5017950;28;20227;-80
2022/09/06 11:54:14;;;;;;;4.93;2.80;;;;;;;;;;5082447;28;20193;-82
2022/09/06 11:56:47;;;;;;;5.60;2.53;;;;;;;;;;5049620;28;20188;-86
2022/09/06 11:59:17;;;;;;;3.10;2.30;;;;;;;;;;5067730;28;20324;-82
2022/09/06 12:01:55;;;;;;;2.50;2.27;;;;;;;;;;5058463;28;20183;-82
2022/09/06 12:04:22;;;;;;;5.20;2.30;;;;;;;;;;5050245;28;20223;-82
2022/09/06 12:07:07;;;;;;;2.23;2.00;;;;;;;;;;5062329;28;20185;-77
2022/09/06 12:09:34;;;;;;;3.17;2.27;;;;;;;;;;5069593;28;20185;-79
2022/09/06 12:12:00;;;;;;;3.87;2.57;;;;;;;;;;5045544;28;20693;-79
2022/09/06 12:14:41;;;;;;;3.63;2.40;;;;;;;;;;5071005;28;20278;-78
2022/09/06 12:17:07;;;;;;;2.73;2.23;;;;;;;;;;5048168;28;20180;-78
2022/09/06 12:19:52;;;;;;;3.07;2.17;;;;;;;;;;5060809;28;20227;-78
2022/09/06 12:22:40;;;;;;;2.77;2.00;;;;;;;;;;5066002;28;20190;-79
2022/09/06 12:25:15;;;;;;;4.03;2.00;;;;;;;;;;5065260;28;20216;-80
2022/09/06 12:27:57;;;;;;;3.43;2.40;;;;;;;;;;5067429;28;20561;-79
2022/09/06 12:30:29;;;;;;;3.23;2.47;;;;;;;;;;5071239;28;20193;-78
2022/09/06 12:32:56;;;;;;;3.70;2.50;;;;;;;;;;5044732;28;20183;-78
2022/09/06 12:35:24;;;;;;;2.87;2.40;;;;;;;;;;5067503;28;20222;-79
2022/09/06 12:37:55;;;;;;;3.50;2.37;;;;;;;;;;5069514;28;20178;-80
2022/09/06 12:40:21;;;;;;;5.37;2.30;;;;;;;;;;5066311;28;20190;-80
2022/09/06 12:42:49;;;;;;;3.30;2.13;;;;;;;;;;5067832;28;20703;-79
2022/09/06 12:45:17;;;;;;;4.50;2.10;;;;;;;;;;5070824;28;20711;-78
2022/09/06 12:47:44;;;;;;;3.47;2.30;;;;;;;;;;5052257;28;20176;-79
2022/09/06 12:50:10;;;;;;;3.40;2.43;;;;;;;;;;5067271;28;20705;-78
2022/09/06 12:52:55;;;;;;;3.33;2.40;;;;;;;;;;5086676;28;20582;-78
2022/09/06 12:55:32;;;;;;;3.07;2.33;;;;;;;;;;5061814;28;20202;-79
2022/09/06 12:58:06;;;;;;;7.47;2.53;;;;;;;;;;5080366;28;20181;-78
2022/09/06 13:00:47;;;;;;;3.07;2.23;;;;;;;;;;5071755;28;20708;-79
2022/09/06 13:03:16;;;;;;;2.37;2.10;;;;;;;;;;5075616;28;20192;-79
2022/09/06 13:05:44;;;;;;;3.30;2.10;;;;;;;;;;5077354;28;20213;-78
2022/09/06 13:08:16;;;;;;;2.80;1.83;;;;;;;;;;5076503;28;20276;-79
2022/09/06 13:10:43;;;;;;;7.97;2.10;;;;;;;;;;5075563;28;20205;-79
2022/09/06 13:13:11;;;;;;;2.13;1.93;;;;;;;;;;5070347;28;20180;-79
2022/09/06 13:15:38;;;;;;;2.87;1.83;;;;;;;;;;5082655;28;20204;-79
2022/09/06 13:18:19;;;;;;;3.03;2.10;;;;;;;;;;5079487;28;20180;-79
2022/09/06 13:20:56;;;;;;;4.30;2.40;;;;;;;;;;5063724;28;20294;-79
2022/09/06 13:23:22;;;;;;;2.57;2.10;;;;;;;;;;5070843;28;20216;-79
2022/09/06 13:25:50;;;;;;;5.03;2.23;;;;;;;;;;5072245;28;20201;-79
2022/09/06 13:28:26;;;;;;;4.27;1.93;;;;;;;;;;5070762;28;20184;-79
2022/09/06 13:31:03;;;;;;;2.53;1.90;;;;;;;;;;5073685;28;20212;-79
2022/09/06 13:33:30;;;;;;;3.40;1.93;;;;;;;;;;5037683;28;20547;-76
2022/09/06 13:36:15;;;;;;;3.40;2.10;;;;;;;;;;5059406;28;20205;-75
2022/09/06 13:38:42;;;;;;;4.47;2.10;;;;;;;;;;5069770;28;20614;-77
2022/09/06 13:41:24;;;;;;;3.63;1.90;;;;;;;;;;5068308;28;20271;-78
2022/09/06 13:43:57;;;;;;;4.30;1.90;;;;;;;;;;5074155;28;20184;-79
2022/09/06 13:46:23;;;;;;;3.83;2.00;;;;;;;;;;5062111;28;20198;-80
2022/09/06 13:48:49;;;;;;;1.73;1.60;;;;;;;;;;5069430;28;20203;-80
2022/09/06 13:51:17;;;;;;;3.07;1.83;;;;;;;;;;5074307;28;20225;-80
2022/09/06 13:53:43;;;;;;;4.27;1.90;;;;;;;;;;5038367;28;20287;-80
2022/09/06 13:56:10;;;;;;;2.77;1.80;;;;;;;;;;5065591;28;20212;-81
2022/09/06 13:58:37;;;;;;;4.23;1.80;;;;;;;;;;5069368;28;20756;-80
2022/09/06 14:01:07;;;;;;;3.00;1.77;;;;;;;;;;5068291;28;20217;-80
2022/09/06 14:03:33;;;;;;;2.90;1.60;;;;;;;;;;5068320;28;20335;-81
2022/09/06 14:06:00;;;;;;;2.43;1.90;;;;;;;;;;5071982;28;20255;-81
2022/09/06 14:08:27;;;;;;;2.17;1.97;;;;;;;;;;5069839;28;20201;-81
2022/09/06 14:10:53;;;;;;;6.23;1.90;;;;;;;;;;5071837;28;20207;-80
2022/09/06 14:13:20;;;;;;;2.93;1.63;;;;;;;;;;5071022;28;20568;-80
2022/09/06 14:15:46;;;;;;;3.07;1.87;;;;;;;;;;5071599;28;20199;-80
2022/09/06 14:18:13;;;;;;;5.80;2.37;;;;;;;;;;5077884;28;20179;-80
2022/09/06 14:20:39;;;;;;;3.27;2.10;;;;;;;;;;5064983;28;20195;-80
2022/09/06 14:23:06;;;;;;;3.73;2.17;;;;;;;;;;5053289;28;20190;-80
2022/09/06 14:25:36;;;;;;;2.73;2.00;;;;;;;;;;5057734;28;20267;-80
2022/09/06 14:28:03;;;;;;;3.87;1.90;;;;;;;;;;5052579;28;20201;-81
2022/09/06 14:30:30;;;;;;;4.97;2.30;;;;;;;;;;5068417;28;20185;-81
2022/09/06 14:32:56;;;;;;;3.70;2.00;;;;;;;;;;5071987;28;20202;-81
2022/09/06 14:35:23;;;;;;;2.80;2.00;;;;;;;;;;5066069;28;20210;-81
2022/09/06 14:37:49;;;;;;;4.20;1.93;;;;;;;;;;5073248;28;20188;-80
2022/09/06 14:40:16;;;;;;;5.47;2.07;;;;;;;;;;5071404;28;20189;-80
2022/09/06 14:42:42;;;;;;;3.20;1.93;;;;;;;;;;5072458;28;20625;-80
2022/09/06 14:45:08;;;;;;;4.20;2.20;;;;;;;;;;5069506;28;20755;-81
2022/09/06 14:47:34;;;;;;;4.80;2.40;;;;;;;;;;5065236;28;20649;-80
2022/09/06 14:50:01;;;;;;;4.47;2.03;;;;;;;;;;5076474;28;20233;-81
2022/09/06 14:52:27;;;;;;;4.57;2.07;;;;;;;;;;5050848;28;20208;-81
2022/09/06 14:54:53;;;;;;;4.00;2.10;;;;;;;;;;5057191;28;20200;-80
2022/09/06 14:57:20;;;;;;;4.83;2.10;;;;;;;;;;5070288;28;20223;-80